Time;durP1;ratioP1;P1;durP2;ratioP2;P2;SDS_P1;SDS_P2;PMS_P1;PMS_P2;Temp;Humidity;BMP_temperature;BMP_pressure;BME280_temperature;BME280_humidity;BME280_pressure;Samples;Min_cycle;Max_cycle;Signal;HPM_P1;HPM_P2
2024/01/06 00:02:01;;;;;;;1.10;1.10;;;3.60;99.90;;;;;;5010486;28;20219;-94
2024/01/06 00:04:28;;;;;;;2.17;1.13;;;3.60;99.90;;;;;;5036642;28;20341;-94
2024/01/06 00:06:54;;;;;;;1.03;1.03;;;3.50;99.90;;;;;;5020845;28;20230;-94
2024/01/06 00:09:20;;;;;;;0.97;0.97;;;3.80;99.90;;;;;;5011693;28;20682;-93
2024/01/06 00:11:45;;;;;;;0.43;0.43;;;3.90;99.90;;;;;;5010290;28;20186;-95
2024/01/06 00:14:11;;;;;;;1.03;1.03;;;3.60;99.90;;;;;;5011901;28;20222;-94
2024/01/06 00:16:37;;;;;;;0.50;0.50;;;3.50;99.90;;;;;;5024637;28;20230;-94
2024/01/06 00:19:03;;;;;;;1.00;1.00;;;3.60;99.90;;;;;;5022618;28;20250;-93
2024/01/06 00:21:29;;;;;;;0.80;0.80;;;3.50;99.90;;;;;;5041167;28;20561;-94
2024/01/06 00:23:55;;;;;;;1.13;1.13;;;3.90;99.90;;;;;;5016578;28;20639;-93
2024/01/06 00:26:22;;;;;;;0.50;0.50;;;3.90;99.90;;;;;;5024662;28;20678;-93
2024/01/06 00:28:49;;;;;;;1.23;1.17;;;3.90;99.90;;;;;;5032178;28;20226;-93
2024/01/06 00:31:19;;;;;;;0.93;0.93;;;3.50;99.90;;;;;;5024832;28;20234;-93
2024/01/06 00:33:45;;;;;;;0.90;0.90;;;3.80;99.90;;;;;;5024622;28;20301;-94
2024/01/06 00:36:11;;;;;;;1.30;1.30;;;3.70;99.90;;;;;;5025534;28;20187;-93
2024/01/06 00:38:37;;;;;;;1.03;1.03;;;3.80;99.90;;;;;;5018374;28;20589;-94
2024/01/06 00:41:02;;;;;;;1.13;1.13;;;3.90;99.90;;;;;;5014028;28;20697;-93
2024/01/06 00:43:28;;;;;;;0.27;0.27;;;3.90;99.90;;;;;;5014633;28;20222;-93
2024/01/06 00:45:54;;;;;;;3.83;2.60;;;3.80;99.90;;;;;;5015690;28;20242;-93
2024/01/06 00:48:20;;;;;;;0.77;0.77;;;3.90;99.90;;;;;;5016764;28;20277;-92
2024/01/06 00:50:46;;;;;;;1.83;1.70;;;3.70;99.90;;;;;;5021548;28;21019;-93
2024/01/06 00:53:12;;;;;;;2.83;2.67;;;3.60;99.90;;;;;;5004299;28;20758;-93
2024/01/06 00:55:38;;;;;;;0.90;0.90;;;3.90;99.90;;;;;;5020645;28;20222;-93
2024/01/06 00:58:04;;;;;;;0.53;0.53;;;3.90;99.90;;;;;;5012584;28;20436;-94
2024/01/06 01:00:30;;;;;;;1.90;1.80;;;3.90;99.90;;;;;;5028454;28;20194;-94
2024/01/06 01:02:56;;;;;;;0.57;0.57;;;3.60;99.90;;;;;;5025641;28;20588;-93
2024/01/06 01:05:22;;;;;;;1.17;1.17;;;3.90;99.90;;;;;;5008238;28;20742;-93
2024/01/06 01:07:48;;;;;;;1.50;1.40;;;4.00;99.90;;;;;;5019775;28;20291;-93
2024/01/06 01:10:14;;;;;;;1.50;1.40;;;3.70;99.90;;;;;;5028021;28;20234;-94
2024/01/06 01:12:40;;;;;;;1.03;1.03;;;3.70;99.90;;;;;;5025775;28;20218;-93
2024/01/06 01:15:06;;;;;;;2.00;1.90;;;3.70;99.90;;;;;;5020805;28;20198;-93
2024/01/06 01:17:32;;;;;;;1.50;1.40;;;3.70;99.90;;;;;;5014442;28;20227;-93
2024/01/06 01:19:57;;;;;;;0.87;0.87;;;3.80;99.90;;;;;;5013211;28;20238;-92
2024/01/06 01:22:23;;;;;;;6.63;1.83;;;4.10;99.90;;;;;;5022490;28;20230;-94
2024/01/06 01:24:49;;;;;;;3.23;1.37;;;4.00;99.90;;;;;;5015234;28;20589;-93
2024/01/06 01:27:15;;;;;;;2.13;1.37;;;4.10;99.90;;;;;;5030026;28;20571;-93
2024/01/06 01:29:40;;;;;;;2.20;0.93;;;4.10;99.90;;;;;;5012373;28;20218;-93
2024/01/06 01:32:06;;;;;;;0.90;0.90;;;3.90;99.90;;;;;;5022327;28;20257;-93
2024/01/06 01:34:32;;;;;;;1.03;1.03;;;4.30;99.90;;;;;;5022448;28;20211;-93
2024/01/06 01:36:59;;;;;;;0.63;0.63;;;4.30;99.90;;;;;;5021068;28;20686;-93
2024/01/06 01:39:25;;;;;;;3.70;1.93;;;3.90;99.90;;;;;;5013405;28;20190;-93
2024/01/06 01:41:51;;;;;;;0.60;0.60;;;3.90;99.90;;;;;;5031684;28;20187;-93
2024/01/06 01:44:16;;;;;;;1.93;1.63;;;4.30;99.90;;;;;;5015446;28;20309;-93
2024/01/06 01:46:42;;;;;;;0.40;0.40;;;4.20;99.90;;;;;;5021810;28;20257;-93
2024/01/06 01:49:08;;;;;;;1.03;1.03;;;4.10;99.90;;;;;;5037355;28;20291;-93
2024/01/06 01:51:35;;;;;;;0.80;0.80;;;4.30;99.90;;;;;;5038530;28;20190;-93
2024/01/06 01:54:03;;;;;;;5.27;1.77;;;3.80;99.90;;;;;;5023530;28;20187;-94
2024/01/06 01:56:34;;;;;;;0.20;0.20;;;3.80;99.90;;;;;;5022215;28;20218;-94
2024/01/06 01:59:09;;;;;;;0.57;0.57;;;3.90;99.90;;;;;;5014500;28;20351;-94
2024/01/06 02:01:34;;;;;;;0.47;0.47;;;4.30;99.90;;;;;;5023862;28;20689;-93
2024/01/06 02:04:00;;;;;;;0.50;0.50;;;3.90;99.90;;;;;;5022135;28;20229;-92
2024/01/06 02:06:26;;;;;;;0.97;0.97;;;4.00;99.90;;;;;;5022367;28;20187;-93
2024/01/06 02:08:51;;;;;;;19.30;2.60;;;3.90;99.90;;;;;;5014572;28;20194;-93
2024/01/06 02:11:17;;;;;;;0.30;0.30;;;4.00;99.90;;;;;;5029760;28;20309;-93
2024/01/06 02:13:43;;;;;;;1.63;1.60;;;4.00;99.90;;;;;;5006441;28;20218;-93
2024/01/06 02:16:09;;;;;;;0.77;0.77;;;4.30;99.90;;;;;;5042468;28;20218;-93
2024/01/06 02:18:34;;;;;;;0.97;0.90;;;4.00;99.90;;;;;;5019663;28;20186;-93
2024/01/06 02:21:02;;;;;;;0.40;0.40;;;4.20;99.90;;;;;;5028799;28;20277;-93
2024/01/06 02:23:31;;;;;;;0.87;0.87;;;4.20;99.90;;;;;;5036247;28;20265;-93
2024/01/06 02:25:57;;;;;;;0.73;0.73;;;4.40;99.90;;;;;;5036097;28;20226;-93
2024/01/06 02:28:22;;;;;;;0.70;0.70;;;4.00;99.90;;;;;;5018791;28;20230;-94
2024/01/06 02:30:50;;;;;;;1.00;0.80;;;4.30;99.90;;;;;;5025267;28;20256;-93
2024/01/06 02:33:15;;;;;;;0.60;0.60;;;4.40;99.90;;;;;;5028099;28;20670;-94
2024/01/06 02:35:41;;;;;;;0.70;0.70;;;4.40;99.90;;;;;;5017896;28;20219;-93
2024/01/06 02:38:08;;;;;;;0.50;0.50;;;4.30;99.90;;;;;;5018225;28;20226;-93
2024/01/06 02:40:34;;;;;;;0.20;0.20;;;4.30;99.90;;;;;;5019252;28;20348;-93
2024/01/06 02:43:00;;;;;;;0.20;0.20;;;4.30;99.90;;;;;;5026769;28;20230;-93
2024/01/06 02:45:25;;;;;;;0.20;0.20;;;4.30;99.90;;;;;;5035618;28;20187;-93
2024/01/06 02:47:51;;;;;;;0.70;0.70;;;4.40;99.90;;;;;;5020155;28;20217;-93
2024/01/06 02:50:17;;;;;;;1.43;1.37;;;4.10;99.90;;;;;;5019197;28;20277;-93
2024/01/06 02:52:45;;;;;;;0.50;0.50;;;4.30;99.90;;;;;;5035808;28;20219;-93
2024/01/06 02:55:11;;;;;;;0.73;0.73;;;4.20;99.90;;;;;;5026898;28;20226;-93
2024/01/06 02:57:37;;;;;;;0.83;0.73;;;4.30;99.90;;;;;;5018345;28;20190;-93
2024/01/06 03:00:04;;;;;;;0.90;0.90;;;4.50;99.90;;;;;;5027179;28;20191;-92
2024/01/06 03:02:29;;;;;;;1.50;0.93;;;4.10;99.90;;;;;;5025738;28;20226;-93
2024/01/06 03:04:56;;;;;;;0.57;0.50;;;4.20;99.90;;;;;;5035285;28;20222;-93
2024/01/06 03:07:22;;;;;;;0.80;0.80;;;4.10;99.90;;;;;;5026647;28;20261;-93
2024/01/06 03:09:47;;;;;;;0.80;0.80;;;4.10;99.90;;;;;;5035333;28;20407;-95
2024/01/06 03:12:13;;;;;;;0.50;0.50;;;4.00;99.90;;;;;;5033941;28;20208;-95
2024/01/06 03:14:39;;;;;;;0.83;0.83;;;4.10;99.90;;;;;;5027799;28;20226;-94
2024/01/06 03:17:05;;;;;;;8.20;1.50;;;4.30;99.90;;;;;;5026792;28;20222;-95
2024/01/06 03:19:31;;;;;;;0.40;0.40;;;4.10;99.90;;;;;;5027025;28;20237;-94
2024/01/06 03:21:57;;;;;;;0.80;0.77;;;4.40;99.90;;;;;;5017318;28;20222;-95
2024/01/06 03:24:24;;;;;;;5.53;1.63;;;4.40;99.90;;;;;;5018559;28;20183;-95
2024/01/06 03:26:50;;;;;;;1.00;0.67;;;4.10;99.90;;;;;;5042891;28;20214;-94
2024/01/06 03:29:16;;;;;;;0.70;0.63;;;4.50;99.90;;;;;;5043296;28;20218;-94
2024/01/06 03:31:46;;;;;;;0.70;0.70;;;4.50;99.90;;;;;;5026487;28;20224;-94
2024/01/06 03:34:12;;;;;;;1.80;1.70;;;4.10;99.90;;;;;;5027379;28;20222;-94
2024/01/06 03:36:39;;;;;;;0.30;0.30;;;4.40;99.90;;;;;;5026437;28;20210;-94
2024/01/06 03:39:05;;;;;;;0.83;0.70;;;4.20;99.90;;;;;;5027125;28;20183;-94
2024/01/06 03:41:31;;;;;;;0.80;0.80;;;4.30;99.90;;;;;;5018882;28;20223;-95
2024/01/06 03:43:57;;;;;;;1.97;1.87;;;4.30;99.90;;;;;;5026345;28;20578;-94
2024/01/06 03:46:23;;;;;;;2.63;1.87;;;4.50;99.90;;;;;;5026474;28;20520;-94
2024/01/06 03:48:49;;;;;;;0.50;0.50;;;4.10;99.90;;;;;;5042205;28;20222;-95
2024/01/06 03:51:15;;;;;;;0.47;0.47;;;4.40;99.90;;;;;;5016762;28;20801;-94
2024/01/06 03:53:41;;;;;;;0.50;0.50;;;4.20;99.90;;;;;;5026119;28;20273;-94
2024/01/06 03:56:07;;;;;;;1.70;1.53;;;4.50;99.90;;;;;;5018368;28;20690;-94
2024/01/06 03:58:33;;;;;;;1.30;1.23;;;4.20;99.90;;;;;;5035103;28;20280;-95
2024/01/06 04:00:59;;;;;;;2.37;2.27;;;4.20;99.90;;;;;;5041963;28;20276;-92
2024/01/06 04:03:25;;;;;;;0.80;0.80;;;4.50;99.90;;;;;;5017509;28;20199;-94
2024/01/06 04:05:51;;;;;;;1.30;1.27;;;4.60;99.90;;;;;;5042542;28;20226;-95
2024/01/06 04:08:17;;;;;;;0.87;0.87;;;4.60;99.90;;;;;;5017767;28;20325;-95
2024/01/06 04:10:43;;;;;;;0.70;0.70;;;4.20;99.90;;;;;;5034203;28;20233;-94
2024/01/06 04:13:10;;;;;;;0.80;0.67;;;4.60;99.90;;;;;;5026225;28;20226;-94
2024/01/06 04:15:36;;;;;;;0.80;0.80;;;4.30;99.90;;;;;;5023636;28;20286;-94
2024/01/06 04:18:03;;;;;;;0.50;0.50;;;4.20;99.90;;;;;;5026672;28;20281;-95
2024/01/06 04:20:30;;;;;;;2.23;2.13;;;4.50;99.90;;;;;;5009416;28;20219;-94
2024/01/06 04:22:55;;;;;;;3.03;1.30;;;4.30;99.90;;;;;;5019852;28;20779;-95
2024/01/06 04:25:21;;;;;;;0.93;0.60;;;4.30;99.90;;;;;;5029865;28;20218;-95
2024/01/06 04:27:48;;;;;;;0.73;0.73;;;4.50;99.90;;;;;;5025563;28;20235;-94
2024/01/06 04:30:15;;;;;;;0.97;0.90;;;4.70;99.90;;;;;;5026820;28;20191;-95
2024/01/06 04:32:41;;;;;;;0.83;0.83;;;4.60;99.90;;;;;;5025551;28;20260;-95
2024/01/06 04:35:08;;;;;;;1.17;1.17;;;4.50;99.90;;;;;;5013718;28;20238;-95
2024/01/06 04:37:33;;;;;;;6.80;1.00;;;4.30;99.90;;;;;;5005224;28;20230;-96
2024/01/06 04:39:59;;;;;;;0.70;0.70;;;4.70;99.90;;;;;;5005903;28;21156;-95
2024/01/06 04:42:25;;;;;;;1.80;0.57;;;4.70;99.90;;;;;;5005786;28;20211;-95
2024/01/06 04:44:51;;;;;;;1.10;1.10;;;4.40;99.90;;;;;;5006429;28;20317;-95
2024/01/06 04:47:17;;;;;;;0.87;0.73;;;4.40;99.90;;;;;;5005469;28;20272;-95
2024/01/06 04:49:44;;;;;;;1.03;1.03;;;4.60;99.90;;;;;;5008629;28;20252;-95
2024/01/06 04:52:10;;;;;;;1.37;1.30;;;4.50;99.90;;;;;;5041368;28;20222;-95
2024/01/06 04:54:36;;;;;;;0.50;0.50;;;4.20;99.90;;;;;;5026011;28;20291;-94
2024/01/06 04:57:03;;;;;;;0.90;0.90;;;4.40;99.90;;;;;;5025407;28;20857;-95
2024/01/06 04:59:28;;;;;;;5.00;0.57;;;4.50;99.90;;;;;;5025206;28;21148;-96
2024/01/06 05:01:54;;;;;;;0.47;0.47;;;4.20;99.90;;;;;;5058034;28;20326;-95
2024/01/06 05:04:20;;;;;;;1.40;1.30;;;4.50;99.90;;;;;;5015140;28;20222;-96
2024/01/06 05:06:46;;;;;;;0.50;0.50;;;4.30;99.90;;;;;;5015299;28;20269;-95
2024/01/06 05:09:11;;;;;;;0.30;0.30;;;4.40;99.90;;;;;;5023015;28;20609;-96
2024/01/06 05:11:37;;;;;;;1.90;1.80;;;4.20;99.90;;;;;;5033206;28;20221;-96
2024/01/06 05:14:03;;;;;;;1.30;1.20;;;4.10;99.90;;;;;;5024504;28;20599;-95
2024/01/06 05:16:29;;;;;;;1.40;1.33;;;4.00;99.90;;;;;;5014678;28;20222;-95
2024/01/06 05:18:55;;;;;;;0.77;0.77;;;4.00;99.90;;;;;;5022431;28;20568;-96
2024/01/06 05:21:20;;;;;;;0.77;0.77;;;4.30;99.90;;;;;;5015321;28;20643;-95
2024/01/06 05:23:46;;;;;;;6.87;1.63;;;4.20;99.90;;;;;;5026361;28;21196;-95
2024/01/06 05:26:13;;;;;;;0.87;0.87;;;4.20;99.90;;;;;;5017639;28;20682;-93
2024/01/06 05:28:40;;;;;;;1.13;1.03;;;3.80;99.90;;;;;;5016181;28;20238;-95
2024/01/06 05:31:06;;;;;;;0.90;0.90;;;4.10;99.90;;;;;;5040363;28;20291;-96
2024/01/06 05:33:32;;;;;;;1.47;1.27;;;4.20;99.90;;;;;;5025368;28;20650;-95
2024/01/06 05:35:57;;;;;;;1.57;1.50;;;4.10;99.90;;;;;;5024469;28;20546;-96
2024/01/06 05:38:23;;;;;;;1.40;1.30;;;4.20;99.90;;;;;;5015938;28;20287;-96
2024/01/06 05:40:49;;;;;;;0.97;0.97;;;3.80;99.90;;;;;;5023361;28;20682;-95
2024/01/06 05:43:15;;;;;;;1.10;1.10;;;3.80;99.90;;;;;;5024020;28;20314;-95
2024/01/06 05:45:44;;;;;;;0.60;0.60;;;4.20;99.90;;;;;;5013831;28;20769;-95
2024/01/06 05:48:11;;;;;;;1.43;1.00;;;3.80;99.90;;;;;;5024035;28;20218;-94
2024/01/06 05:50:39;;;;;;;1.27;1.27;;;4.00;99.90;;;;;;4995985;28;20326;-95
2024/01/06 05:53:05;;;;;;;0.43;0.43;;;4.30;99.90;;;;;;5028684;28;20971;-96
2024/01/06 05:55:31;;;;;;;0.67;0.67;;;3.90;99.90;;;;;;5038797;28;20237;-94
2024/01/06 05:57:56;;;;;;;1.17;1.07;;;4.40;99.90;;;;;;5038608;28;20276;-94
2024/01/06 06:00:22;;;;;;;1.10;1.00;;;4.30;99.90;;;;;;5037357;28;20205;-94
2024/01/06 06:02:48;;;;;;;2.00;1.90;;;4.10;99.90;;;;;;5023085;28;20186;-93
2024/01/06 06:05:14;;;;;;;0.80;0.80;;;4.30;99.90;;;;;;5038569;28;20222;-94
2024/01/06 06:07:40;;;;;;;0.90;0.90;;;4.30;99.90;;;;;;5040028;28;20698;-94
2024/01/06 06:10:08;;;;;;;1.67;1.60;;;4.30;99.90;;;;;;5022850;28;20222;-95
2024/01/06 06:12:34;;;;;;;0.40;0.40;;;4.10;99.90;;;;;;5013695;28;20190;-94
2024/01/06 06:14:59;;;;;;;1.27;1.27;;;4.10;99.90;;;;;;5057523;28;20252;-93
2024/01/06 06:17:25;;;;;;;0.93;0.93;;;4.30;99.90;;;;;;5023210;28;20272;-93
2024/01/06 06:19:51;;;;;;;1.50;1.40;;;4.40;99.90;;;;;;5030648;28;20226;-93
2024/01/06 06:22:17;;;;;;;0.50;0.50;;;4.40;99.90;;;;;;5014716;28;20222;-93
2024/01/06 06:24:42;;;;;;;0.53;0.53;;;4.40;99.90;;;;;;5015181;28;21126;-94
2024/01/06 06:27:08;;;;;;;1.80;0.93;;;4.40;99.90;;;;;;5007775;28;20210;-93
2024/01/06 06:29:34;;;;;;;0.67;0.67;;;4.30;99.90;;;;;;5023763;28;20222;-93
2024/01/06 06:32:00;;;;;;;0.77;0.77;;;4.40;99.90;;;;;;5048709;28;20218;-93
2024/01/06 06:34:26;;;;;;;4.57;2.10;;;4.50;99.90;;;;;;5030700;28;20801;-94
2024/01/06 06:36:52;;;;;;;0.50;0.50;;;4.30;99.90;;;;;;5031096;28;20229;-93
2024/01/06 06:39:18;;;;;;;0.57;0.57;;;4.30;99.90;;;;;;5031422;28;20647;-91
2024/01/06 06:41:44;;;;;;;0.83;0.83;;;4.50;99.90;;;;;;5015961;28;20314;-94
2024/01/06 06:44:10;;;;;;;1.70;1.60;;;4.30;99.90;;;;;;5056623;28;20306;-94
2024/01/06 06:46:36;;;;;;;2.07;0.63;;;4.50;99.90;;;;;;5014865;28;20229;-93
2024/01/06 06:49:02;;;;;;;0.77;0.77;;;4.50;99.90;;;;;;5023503;28;20226;-94
2024/01/06 06:51:30;;;;;;;0.40;0.40;;;4.40;99.90;;;;;;5024514;28;20179;-93
2024/01/06 06:53:56;;;;;;;0.53;0.53;;;4.50;99.90;;;;;;5021478;28;20178;-93
2024/01/06 06:56:22;;;;;;;0.90;0.90;;;4.50;99.90;;;;;;5023671;28;20229;-93
2024/01/06 06:58:48;;;;;;;1.17;1.17;;;4.50;99.90;;;;;;5023395;28;20210;-93
2024/01/06 07:01:17;;;;;;;9.37;0.63;;;4.40;99.90;;;;;;5057812;28;20292;-93
2024/01/06 07:03:43;;;;;;;0.70;0.70;;;4.50;99.90;;;;;;5017976;28;20218;-92
2024/01/06 07:06:11;;;;;;;1.07;1.07;;;4.60;99.90;;;;;;5027510;28;20193;-90
2024/01/06 07:08:38;;;;;;;1.17;1.07;;;4.50;99.90;;;;;;5026430;28;20230;-92
2024/01/06 07:11:04;;;;;;;1.17;1.07;;;4.60;99.90;;;;;;5025254;28;20218;-92
2024/01/06 07:13:30;;;;;;;0.90;0.90;;;4.50;99.90;;;;;;5056545;28;20637;-92
2024/01/06 07:15:56;;;;;;;0.83;0.83;;;4.50;99.90;;;;;;5025880;28;20754;-93
2024/01/06 07:18:23;;;;;;;0.97;0.97;;;4.50;99.90;;;;;;5032136;28;20201;-93
2024/01/06 07:20:49;;;;;;;1.37;1.37;;;4.50;99.90;;;;;;5032833;28;20215;-93
2024/01/06 07:23:14;;;;;;;2.00;1.23;;;4.50;99.90;;;;;;5009079;28;20237;-94
2024/01/06 07:25:40;;;;;;;0.63;0.63;;;4.40;99.90;;;;;;5025289;28;20222;-93
2024/01/06 07:28:08;;;;;;;0.43;0.43;;;4.60;99.90;;;;;;5017578;28;20235;-93
2024/01/06 07:30:34;;;;;;;1.40;1.30;;;4.40;99.90;;;;;;5025777;28;20187;-94
2024/01/06 07:33:00;;;;;;;2.33;0.47;;;4.40;99.90;;;;;;5016557;28;20179;-94
2024/01/06 07:35:26;;;;;;;1.23;1.10;;;4.40;99.90;;;;;;5025114;28;20216;-90
2024/01/06 07:37:52;;;;;;;7.43;1.83;;;4.40;99.90;;;;;;5026056;28;20267;-92
2024/01/06 07:40:18;;;;;;;0.60;0.60;;;4.40;99.90;;;;;;5046800;28;20280;-93
2024/01/06 07:42:44;;;;;;;0.50;0.50;;;4.60;99.90;;;;;;5025832;28;20217;-92
2024/01/06 07:45:10;;;;;;;1.00;1.00;;;4.50;99.90;;;;;;5026592;28;20213;-92
2024/01/06 07:47:36;;;;;;;0.50;0.50;;;4.40;99.90;;;;;;5023886;28;20253;-92
2024/01/06 07:50:04;;;;;;;0.30;0.30;;;4.40;99.90;;;;;;5017561;28;20235;-93
2024/01/06 07:52:30;;;;;;;0.40;0.40;;;4.40;99.90;;;;;;5025001;28;20222;-93
2024/01/06 07:54:56;;;;;;;2.43;1.90;;;4.40;99.90;;;;;;5017307;28;20229;-93
2024/01/06 07:57:24;;;;;;;0.93;0.93;;;4.50;99.90;;;;;;5016212;28;20199;-93
2024/01/06 07:59:50;;;;;;;0.70;0.70;;;4.60;99.90;;;;;;5016375;28;20179;-92
2024/01/06 08:02:17;;;;;;;1.20;1.03;;;4.60;99.90;;;;;;5024485;28;20701;-94
2024/01/06 08:04:42;;;;;;;0.60;0.50;;;4.30;99.90;;;;;;5051260;28;20276;-93
2024/01/06 08:07:09;;;;;;;0.93;0.93;;;4.40;99.90;;;;;;5046706;28;20698;-94
2024/01/06 08:09:34;;;;;;;0.70;0.70;;;4.40;99.90;;;;;;5024497;28;20210;-92
2024/01/06 08:12:02;;;;;;;1.13;1.13;;;4.50;99.90;;;;;;5026529;28;20415;-95
2024/01/06 08:14:28;;;;;;;1.93;1.73;;;4.40;99.90;;;;;;5015702;28;20895;-94
2024/01/06 08:16:54;;;;;;;1.53;1.43;;;4.50;99.90;;;;;;5005615;28;20251;-93
2024/01/06 08:19:20;;;;;;;0.70;0.70;;;4.50;99.90;;;;;;4989059;28;20683;-95
2024/01/06 08:21:47;;;;;;;0.63;0.63;;;4.40;99.90;;;;;;4988368;28;20230;-93
2024/01/06 08:24:13;;;;;;;1.37;1.27;;;4.30;99.90;;;;;;4989666;28;20199;-94
2024/01/06 08:26:38;;;;;;;1.20;1.20;;;4.30;99.90;;;;;;5005910;28;20269;-92
2024/01/06 08:29:04;;;;;;;0.77;0.77;;;4.30;99.90;;;;;;5004973;28;20412;-93
2024/01/06 08:31:30;;;;;;;2.50;2.40;;;4.40;99.90;;;;;;5031427;28;20214;-92
2024/01/06 08:33:56;;;;;;;0.50;0.50;;;4.40;99.90;;;;;;5059165;28;20222;-93
2024/01/06 08:36:22;;;;;;;0.70;0.70;;;4.40;99.90;;;;;;5032849;28;20186;-93
2024/01/06 08:38:48;;;;;;;1.33;1.33;;;4.30;99.90;;;;;;5016994;28;20644;-93
2024/01/06 08:41:13;;;;;;;0.63;0.63;;;4.30;99.90;;;;;;5040501;28;20218;-94
2024/01/06 08:43:39;;;;;;;1.07;0.77;;;4.30;99.90;;;;;;5026929;28;20226;-93
2024/01/06 08:46:05;;;;;;;2.93;1.40;;;4.30;99.90;;;;;;5032101;28;20214;-93
2024/01/06 08:48:31;;;;;;;0.73;0.73;;;4.30;99.90;;;;;;5042388;28;20229;-93
2024/01/06 08:50:57;;;;;;;1.00;0.90;;;4.30;99.90;;;;;;5059430;28;20231;-91
2024/01/06 08:53:23;;;;;;;1.27;1.27;;;4.10;99.90;;;;;;5024689;28;20257;-93
2024/01/06 08:55:48;;;;;;;0.83;0.83;;;4.20;99.90;;;;;;5025470;28;20921;-91
2024/01/06 08:58:14;;;;;;;0.40;0.40;;;4.00;99.90;;;;;;5025019;28;20230;-92
2024/01/06 09:00:40;;;;;;;1.27;0.93;;;4.20;99.90;;;;;;5040635;28;20222;-94
2024/01/06 09:03:06;;;;;;;1.10;1.07;;;4.00;99.90;;;;;;5015937;28;20244;-93
2024/01/06 09:05:36;;;;;;;0.50;0.50;;;4.10;99.90;;;;;;5015966;28;20226;-92
2024/01/06 09:08:03;;;;;;;0.50;0.50;;;4.30;99.90;;;;;;5035175;28;20227;-93
2024/01/06 09:10:29;;;;;;;1.13;1.10;;;4.30;99.90;;;;;;5025421;28;20321;-90
2024/01/06 09:12:55;;;;;;;1.33;0.90;;;4.20;99.90;;;;;;5040135;28;20288;-90
2024/01/06 09:15:20;;;;;;;1.00;1.00;;;4.10;99.90;;;;;;5022906;28;20190;-91
2024/01/06 09:17:46;;;;;;;0.50;0.50;;;4.10;99.90;;;;;;5030621;28;20226;-91
2024/01/06 09:20:12;;;;;;;0.97;0.97;;;4.30;99.90;;;;;;5022826;28;20318;-92
2024/01/06 09:22:38;;;;;;;1.17;1.17;;;4.10;99.90;;;;;;5023314;28;20245;-92
2024/01/06 09:25:04;;;;;;;0.40;0.40;;;4.00;99.90;;;;;;5023343;28;20751;-92
2024/01/06 09:27:30;;;;;;;2.43;2.33;;;4.10;99.90;;;;;;5029912;28;20219;-93
2024/01/06 09:29:55;;;;;;;0.93;0.93;;;4.10;99.90;;;;;;5017286;28;20555;-91
2024/01/06 09:32:22;;;;;;;1.00;1.00;;;4.10;99.90;;;;;;5011966;28;21079;-94
2024/01/06 09:34:48;;;;;;;0.70;0.70;;;4.00;99.90;;;;;;5029774;28;20230;-91
2024/01/06 09:37:14;;;;;;;2.10;2.00;;;4.30;99.90;;;;;;5038850;28;20234;-94
2024/01/06 09:39:40;;;;;;;0.97;0.97;;;4.10;99.90;;;;;;5028674;28;20241;-93
2024/01/06 09:42:06;;;;;;;1.57;0.97;;;4.20;99.90;;;;;;5023786;28;20187;-92
2024/01/06 09:44:33;;;;;;;2.20;0.73;;;4.30;99.90;;;;;;5046871;28;20222;-92
2024/01/06 09:47:01;;;;;;;0.80;0.80;;;4.20;99.90;;;;;;5013622;28;20261;-93
2024/01/06 09:49:30;;;;;;;2.37;0.80;;;4.50;99.90;;;;;;5013021;28;20238;-93
2024/01/06 09:51:59;;;;;;;0.50;0.50;;;4.40;99.90;;;;;;5054739;28;20871;-93
2024/01/06 09:54:28;;;;;;;2.10;2.00;;;4.40;99.90;;;;;;5022291;28;20183;-93
2024/01/06 09:56:55;;;;;;;0.70;0.70;;;4.50;99.90;;;;;;5053625;28;20690;-93
2024/01/06 09:59:22;;;;;;;0.63;0.63;;;4.50;99.90;;;;;;5022308;28;20261;-94
2024/01/06 10:01:49;;;;;;;0.87;0.87;;;4.30;99.90;;;;;;5011109;28;20223;-93
2024/01/06 10:04:15;;;;;;;1.90;1.80;;;4.40;99.90;;;;;;5022771;28;20245;-93
2024/01/06 10:06:41;;;;;;;0.57;0.57;;;4.40;99.90;;;;;;5022350;28;21054;-92
2024/01/06 10:09:07;;;;;;;0.60;0.60;;;4.30;99.90;;;;;;5023245;28;20187;-93
2024/01/06 10:11:35;;;;;;;0.90;0.90;;;4.40;99.90;;;;;;5046305;28;20268;-92
2024/01/06 10:14:03;;;;;;;0.33;0.33;;;4.60;99.90;;;;;;5056039;28;20222;-94
2024/01/06 10:16:29;;;;;;;0.67;0.63;;;4.60;99.90;;;;;;5021684;28;20222;-92
2024/01/06 10:18:55;;;;;;;0.87;0.87;;;4.60;99.90;;;;;;5022712;28;20300;-93
2024/01/06 10:21:24;;;;;;;0.90;0.90;;;4.50;99.90;;;;;;5016435;28;20293;-93
2024/01/06 10:23:50;;;;;;;4.20;1.70;;;4.60;99.90;;;;;;5039400;28;20197;-92
2024/01/06 10:26:17;;;;;;;1.30;1.17;;;4.40;99.90;;;;;;5021513;28;20246;-95
2024/01/06 10:28:43;;;;;;;1.03;0.93;;;4.60;99.90;;;;;;5014762;28;20242;-94
2024/01/06 10:31:09;;;;;;;1.67;1.57;;;4.40;99.90;;;;;;5021799;28;20226;-92
2024/01/06 10:33:38;;;;;;;1.50;1.40;;;4.50;99.90;;;;;;5013514;28;20195;-94
2024/01/06 10:36:06;;;;;;;0.97;0.87;;;4.60;99.90;;;;;;5025574;28;20179;-92
2024/01/06 10:38:35;;;;;;;1.23;1.23;;;4.60;99.90;;;;;;5018794;28;20268;-92
2024/01/06 10:41:07;;;;;;;0.73;0.70;;;4.60;99.90;;;;;;5041967;28;20276;-92
2024/01/06 10:43:43;;;;;;;1.60;1.50;;;4.50;99.90;;;;;;5022338;28;20213;-92
2024/01/06 10:46:10;;;;;;;0.90;0.90;;;4.30;99.90;;;;;;5036931;28;20223;-92
2024/01/06 10:48:44;;;;;;;1.03;1.03;;;4.30;99.90;;;;;;5026815;28;20218;-92
2024/01/06 10:51:11;;;;;;;0.90;0.90;;;4.30;99.90;;;;;;5020291;28;20313;-93
2024/01/06 10:53:39;;;;;;;0.50;0.50;;;4.40;99.90;;;;;;5016368;28;20215;-92
2024/01/06 10:56:12;;;;;;;2.60;2.40;;;4.50;99.90;;;;;;4999143;28;20254;-93
2024/01/06 10:58:44;;;;;;;2.93;1.93;;;4.30;99.90;;;;;;5033264;28;20847;-93
2024/01/06 11:01:11;;;;;;;1.00;1.00;;;4.40;99.90;;;;;;5041992;28;20226;-92
2024/01/06 11:03:38;;;;;;;1.90;1.80;;;4.30;99.90;;;;;;5025478;28;20182;-94
2024/01/06 11:06:05;;;;;;;1.27;1.27;;;4.30;99.90;;;;;;5019026;28;20194;-93
2024/01/06 11:08:36;;;;;;;2.77;2.50;;;4.10;99.90;;;;;;5025570;28;20288;-93
2024/01/06 11:11:04;;;;;;;1.43;1.33;;;4.20;99.90;;;;;;5041527;28;20219;-91
2024/01/06 11:13:29;;;;;;;1.30;1.20;;;4.20;99.90;;;;;;5024011;28;20229;-94
2024/01/06 11:15:55;;;;;;;2.70;2.50;;;4.20;99.90;;;;;;5019368;28;20214;-91
2024/01/06 11:18:31;;;;;;;1.80;1.70;;;4.10;99.90;;;;;;5023082;28;20187;-92
2024/01/06 11:21:17;;;;;;;1.17;0.83;;;4.20;99.90;;;;;;5030536;28;20198;-93
2024/01/06 11:23:43;;;;;;;2.47;2.37;;;4.00;99.90;;;;;;5025510;28;20276;-91
2024/01/06 11:26:09;;;;;;;1.20;1.10;;;4.10;99.90;;;;;;5025079;28;20222;-91
2024/01/06 11:28:48;;;;;;;0.60;0.60;;;4.20;99.90;;;;;;5024312;28;20231;-93
2024/01/06 11:31:13;;;;;;;0.67;0.67;;;3.90;99.90;;;;;;5015589;28;20219;-92
2024/01/06 11:33:49;;;;;;;2.00;1.90;;;4.10;99.90;;;;;;5031394;28;20237;-92
2024/01/06 11:36:15;;;;;;;0.77;0.77;;;3.90;99.90;;;;;;5026967;28;20197;-91
2024/01/06 11:38:41;;;;;;;0.77;0.77;;;4.10;99.90;;;;;;5040664;28;20703;-92
2024/01/06 11:41:30;;;;;;;1.03;1.03;;;4.00;99.90;;;;;;5017610;28;20314;-89
2024/01/06 11:43:56;;;;;;;3.20;1.57;;;3.90;99.90;;;;;;5058513;28;20226;-91
2024/01/06 11:46:22;;;;;;;1.27;1.17;;;3.90;99.90;;;;;;5031267;28;20632;-90
2024/01/06 11:48:51;;;;;;;1.20;1.20;;;4.10;99.90;;;;;;5005993;28;20258;-91
2024/01/06 11:51:18;;;;;;;0.70;0.70;;;4.00;99.90;;;;;;5024393;28;20241;-92
2024/01/06 11:53:45;;;;;;;1.73;1.63;;;4.00;99.90;;;;;;5032990;28;20413;-92
2024/01/06 11:56:11;;;;;;;1.97;1.87;;;3.70;99.90;;;;;;5012628;28;20230;-91
2024/01/06 11:58:40;;;;;;;2.70;2.50;;;4.00;99.90;;;;;;5008909;28;21908;-92
2024/01/06 12:01:06;;;;;;;2.20;2.10;;;3.60;99.90;;;;;;5020893;28;20412;-91
2024/01/06 12:03:33;;;;;;;0.80;0.80;;;3.90;99.90;;;;;;5035888;28;20858;-92
2024/01/06 12:06:02;;;;;;;1.57;1.57;;;3.60;99.90;;;;;;5021369;28;20210;-92
2024/01/06 12:08:29;;;;;;;1.87;1.70;;;3.80;99.90;;;;;;5020463;28;20254;-92
2024/01/06 12:11:05;;;;;;;0.77;0.77;;;3.90;99.90;;;;;;5012587;28;20234;-91
2024/01/06 12:13:31;;;;;;;1.07;1.07;;;3.60;99.90;;;;;;5014571;28;20392;-93
2024/01/06 12:15:57;;;;;;;1.30;1.17;;;3.80;99.90;;;;;;5011302;28;20320;-90
2024/01/06 12:18:25;;;;;;;0.77;0.73;;;3.60;99.90;;;;;;5009797;28;20195;-90
2024/01/06 12:20:52;;;;;;;2.30;1.73;;;3.70;99.90;;;;;;5028212;28;20202;-92
2024/01/06 12:23:25;;;;;;;1.70;1.60;;;3.50;99.90;;;;;;5001461;28;20223;-91
2024/01/06 12:25:51;;;;;;;0.77;0.77;;;3.80;99.90;;;;;;5023469;28;20301;-91
2024/01/06 12:28:17;;;;;;;0.40;0.40;;;3.70;99.90;;;;;;5022140;28;20229;-92
2024/01/06 12:30:44;;;;;;;3.40;0.80;;;3.60;99.90;;;;;;5041156;28;20190;-93
2024/01/06 12:33:10;;;;;;;0.97;0.93;;;3.40;99.90;;;;;;5016630;28;20268;-91
2024/01/06 12:35:36;;;;;;;0.50;0.50;;;3.40;99.90;;;;;;5056949;28;20226;-92
2024/01/06 12:38:06;;;;;;;1.50;1.43;;;3.40;99.90;;;;;;5024382;28;20223;-93
2024/01/06 12:40:31;;;;;;;1.03;1.00;;;3.60;99.90;;;;;;5003840;28;20218;-92
2024/01/06 12:42:57;;;;;;;0.47;0.47;;;3.60;99.90;;;;;;4979441;28;20697;-91
2024/01/06 12:45:23;;;;;;;0.80;0.80;;;3.60;99.90;;;;;;4995984;28;20759;-93
2024/01/06 12:47:49;;;;;;;1.40;1.40;;;3.30;99.90;;;;;;5032616;28;20295;-93
2024/01/06 12:50:15;;;;;;;0.50;0.50;;;3.30;99.90;;;;;;5023820;28;21142;-91
2024/01/06 12:52:41;;;;;;;0.90;0.90;;;3.60;99.90;;;;;;5038779;28;20691;-92
2024/01/06 12:55:07;;;;;;;1.43;1.07;;;3.40;99.90;;;;;;5015416;28;20273;-93